createdAt,value
2022-09-30T00:08:13.171Z,80.30574
2022-09-30T00:23:15.471Z,131.84525
2022-09-30T00:38:17.718Z,149.82414
2022-09-30T00:53:20.012Z,79.10715
2022-09-30T01:08:22.355Z,21.57468
2022-09-30T01:23:24.738Z,15.58171
2022-09-30T01:38:27.039Z,3.59578
2022-09-30T01:53:29.325Z,0
2022-09-30T02:08:31.632Z,0
2022-09-30T02:23:33.890Z,0
2022-09-30T02:38:36.238Z,0
2022-09-30T02:53:38.578Z,0
2022-09-30T03:08:40.861Z,0
2022-09-30T03:23:43.114Z,0
2022-09-30T03:38:45.417Z,0
2022-09-30T03:53:47.901Z,0
2022-09-30T04:08:50.437Z,0
2022-09-30T04:23:52.722Z,0
2022-09-30T04:38:54.952Z,0
2022-09-30T04:53:57.330Z,0
2022-09-30T05:08:59.709Z,0
2022-09-30T05:24:02.185Z,0
2022-09-30T05:39:04.475Z,0
2022-09-30T05:54:06.758Z,0
2022-09-30T06:09:09.148Z,0
2022-09-30T06:24:11.453Z,0
2022-09-30T06:39:13.994Z,0
2022-09-30T06:54:16.314Z,0
2022-09-30T07:09:18.780Z,0
2022-09-30T07:24:21.163Z,0
2022-09-30T07:39:23.608Z,0
2022-09-30T07:54:25.970Z,0
2022-09-30T08:09:28.501Z,0
2022-09-30T08:24:31.045Z,0
2022-09-30T08:39:33.564Z,0
2022-09-30T08:54:39.965Z,0
2022-09-30T09:09:42.495Z,0
2022-09-30T09:24:44.815Z,0
2022-09-30T09:39:47.090Z,0
2022-09-30T09:54:49.608Z,0
2022-09-30T10:09:51.877Z,0
2022-09-30T10:24:54.204Z,0
2022-09-30T10:39:56.552Z,0
2022-09-30T10:54:58.891Z,0
2022-09-30T11:10:01.327Z,0
2022-09-30T11:25:08.721Z,0
2022-09-30T11:40:13.549Z,0
2022-09-30T11:55:15.885Z,0
2022-09-30T12:10:18.269Z,0
2022-09-30T12:25:20.561Z,0
2022-09-30T12:40:22.819Z,0
2022-09-30T12:55:25.174Z,0
2022-09-30T13:10:27.509Z,0
2022-09-30T13:25:29.754Z,0
2022-09-30T13:40:57.176Z,4.79437
2022-09-30T13:56:03.510Z,21.57468
2022-09-30T14:11:05.788Z,51.53951
2022-09-30T14:26:08.089Z,82.70293
2022-09-30T14:41:10.433Z,128.24947
2022-09-30T14:56:12.733Z,154.61852
2022-09-30T15:11:15.012Z,185.78194
2022-09-30T15:26:17.367Z,177.39178
2022-09-30T15:41:19.725Z,214.54817
2022-09-30T15:56:21.993Z,335.60608
2022-09-30T16:11:24.451Z,442.28088
2022-09-30T16:26:26.740Z,557.34583
2022-09-30T16:41:29.017Z,728.74463
2022-09-30T16:56:31.766Z,1130.27332
2022-09-30T17:11:34.263Z,1546.18518
2022-09-30T17:26:36.603Z,1873.40112
2022-09-30T17:41:38.924Z,3939.77563
2022-09-30T17:56:41.221Z,2298.90161
2022-09-30T18:11:44.465Z,1329.23975
2022-09-30T18:26:46.966Z,1622.89514
2022-09-30T18:41:49.288Z,1787.10242
2022-09-30T18:56:51.520Z,2032.81396
2022-09-30T19:11:53.850Z,2393.59058
2022-09-30T19:26:56.206Z,2791.52344
2022-09-30T19:42:03.147Z,4005.69824
2022-09-30T19:57:06.549Z,4546.26367
2022-09-30T20:12:08.810Z,4139.94092
2022-09-30T20:27:11.195Z,3932.58398
2022-09-30T20:42:13.539Z,3918.20093
2022-09-30T20:57:15.928Z,3816.32056
2022-09-30T21:12:18.297Z,3848.68262
2022-09-30T21:27:20.818Z,3813.92334
2022-09-30T21:42:23.202Z,3749.19946
2022-09-30T21:57:25.503Z,3423.18213
2022-09-30T22:12:27.795Z,3225.41406
2022-09-30T22:27:30.157Z,2831.0769
2022-09-30T22:42:32.547Z,2604.54297
2022-09-30T22:57:34.847Z,2616.52881
2022-09-30T23:12:37.142Z,2658.47949
2022-09-30T23:27:39.490Z,2477.49194
2022-09-30T23:42:41.809Z,2224.58887
2022-09-30T23:57:44.276Z,1024.79712
